Time;durP1;ratioP1;P1;durP2;ratioP2;P2;SDS_P1;SDS_P2;PMS_P1;PMS_P2;Temp;Humidity;BMP_temperature;BMP_pressure;BME280_temperature;BME280_humidity;BME280_pressure;Samples;Min_cycle;Max_cycle;Signal;HPM_P1;HPM_P2
2023/08/09 00:00:19;;;;;;;2.57;1.43;;;17.60;99.90;;;;;;5070728;28;20195;-65
2023/08/09 00:02:45;;;;;;;3.03;1.43;;;17.50;99.90;;;;;;5070745;28;20579;-65
2023/08/09 00:05:10;;;;;;;2.70;1.97;;;17.40;99.90;;;;;;5070769;28;20426;-64
2023/08/09 00:07:36;;;;;;;4.30;1.40;;;17.20;99.90;;;;;;5070871;28;20267;-64
2023/08/09 00:10:02;;;;;;;2.83;1.50;;;17.20;99.90;;;;;;5052685;28;20213;-65
2023/08/09 00:12:28;;;;;;;3.87;1.80;;;17.10;99.90;;;;;;5070428;28;20691;-65
2023/08/09 00:14:53;;;;;;;2.20;1.87;;;17.10;99.90;;;;;;5070209;28;20522;-65
2023/08/09 00:17:19;;;;;;;3.63;1.10;;;17.20;99.90;;;;;;5070280;28;20233;-65
2023/08/09 00:19:46;;;;;;;4.40;1.73;;;17.00;99.90;;;;;;5070006;28;20560;-65
2023/08/09 00:22:12;;;;;;;4.70;1.43;;;17.00;99.90;;;;;;5070003;28;20203;-65
2023/08/09 00:24:37;;;;;;;2.33;1.43;;;16.90;99.90;;;;;;5070119;28;20420;-65
2023/08/09 00:27:03;;;;;;;2.20;1.10;;;16.80;99.90;;;;;;5070112;28;20781;-65
2023/08/09 00:29:29;;;;;;;3.13;1.67;;;16.80;99.90;;;;;;5069699;28;20227;-65
2023/08/09 00:31:56;;;;;;;3.63;1.60;;;16.80;99.90;;;;;;5069303;28;20664;-66
2023/08/09 00:34:21;;;;;;;2.70;1.70;;;16.50;99.90;;;;;;5069747;28;20189;-65
2023/08/09 00:36:47;;;;;;;2.57;1.60;;;16.40;99.90;;;;;;5069714;28;20439;-65
2023/08/09 00:39:15;;;;;;;1.60;1.27;;;16.30;99.90;;;;;;5069747;28;20357;-65
2023/08/09 00:41:41;;;;;;;4.90;2.00;;;16.20;99.90;;;;;;5069474;28;20446;-65
2023/08/09 00:44:06;;;;;;;4.50;2.30;;;16.10;99.90;;;;;;5069563;28;20759;-65
2023/08/09 00:46:32;;;;;;;2.60;1.80;;;16.00;99.90;;;;;;5069411;28;20425;-65
2023/08/09 00:48:58;;;;;;;5.13;1.83;;;15.90;99.90;;;;;;5069426;28;20213;-65
2023/08/09 00:51:23;;;;;;;2.63;1.23;;;15.90;99.90;;;;;;5069405;28;20276;-65
2023/08/09 00:53:49;;;;;;;1.77;1.63;;;15.80;99.90;;;;;;5051120;28;20192;-65
2023/08/09 00:56:15;;;;;;;4.87;2.30;;;16.00;99.90;;;;;;5069442;28;20755;-65
2023/08/09 00:58:41;;;;;;;2.20;1.70;;;15.90;99.90;;;;;;5069163;28;20565;-65
2023/08/09 01:01:07;;;;;;;2.20;1.70;;;15.90;99.90;;;;;;5069141;28;20210;-65
2023/08/09 01:03:33;;;;;;;3.97;1.50;;;15.90;99.90;;;;;;5069100;28;20246;-65
2023/08/09 01:06:08;;;;;;;1.83;1.47;;;15.90;99.90;;;;;;5069149;28;20448;-65
2023/08/09 01:08:45;;;;;;;1.70;1.60;;;16.00;99.90;;;;;;5069150;28;20414;-65
2023/08/09 01:11:29;;;;;;;3.87;1.63;;;16.10;99.90;;;;;;5068931;28;20909;-64
2023/08/09 01:13:55;;;;;;;3.60;1.30;;;16.00;99.90;;;;;;5068976;28;20423;-65
2023/08/09 01:16:24;;;;;;;2.03;1.40;;;16.00;99.90;;;;;;5051016;28;20925;-65
2023/08/09 01:18:52;;;;;;;3.10;1.67;;;16.10;99.90;;;;;;5068745;28;20433;-65
2023/08/09 01:21:19;;;;;;;1.53;1.23;;;16.10;99.90;;;;;;5068731;28;20943;-65
2023/08/09 01:23:46;;;;;;;4.23;1.43;;;16.10;99.90;;;;;;5068895;28;20443;-65
2023/08/09 01:26:12;;;;;;;3.93;1.70;;;16.10;99.90;;;;;;5068910;28;20913;-65
2023/08/09 01:28:38;;;;;;;2.20;1.60;;;16.10;99.90;;;;;;5068676;28;20434;-65
2023/08/09 01:31:04;;;;;;;1.87;1.47;;;16.10;99.90;;;;;;5068409;28;20221;-65
2023/08/09 01:33:30;;;;;;;3.83;1.57;;;16.10;99.90;;;;;;5068729;28;20487;-65
2023/08/09 01:36:22;;;;;;;3.93;1.70;;;16.10;99.90;;;;;;5068648;28;21119;-65
2023/08/09 01:38:55;;;;;;;3.20;1.67;;;16.10;99.90;;;;;;5057688;28;20427;-65
2023/08/09 01:41:21;;;;;;;1.70;1.60;;;16.10;99.90;;;;;;5068641;28;20485;-65
2023/08/09 01:43:47;;;;;;;1.33;1.23;;;16.00;99.90;;;;;;5067934;28;20466;-65
2023/08/09 01:46:14;;;;;;;3.50;2.13;;;16.10;99.90;;;;;;5068519;28;20200;-65
2023/08/09 01:48:40;;;;;;;3.00;1.90;;;15.90;99.90;;;;;;5068551;28;20792;-65
2023/08/09 01:51:06;;;;;;;4.03;1.90;;;15.90;99.90;;;;;;5068438;28;20478;-65
2023/08/09 01:53:32;;;;;;;2.67;1.63;;;15.80;99.90;;;;;;5068351;28;20925;-65
2023/08/09 01:55:57;;;;;;;3.13;2.03;;;15.80;99.90;;;;;;5068517;28;20188;-65
2023/08/09 01:58:23;;;;;;;7.53;1.80;;;15.80;99.90;;;;;;5068574;28;20914;-65
2023/08/09 02:00:48;;;;;;;4.13;1.80;;;15.80;99.90;;;;;;5068346;28;20239;-65
2023/08/09 02:03:14;;;;;;;3.10;1.90;;;15.80;99.90;;;;;;5068468;28;20212;-65
2023/08/09 02:05:40;;;;;;;6.50;2.23;;;15.90;99.90;;;;;;5068394;28;20189;-65
2023/08/09 02:08:06;;;;;;;8.27;2.00;;;16.10;99.90;;;;;;5068320;28;20287;-65
2023/08/09 02:10:32;;;;;;;5.17;1.67;;;16.20;99.90;;;;;;5068226;28;20230;-65
2023/08/09 02:12:57;;;;;;;1.90;1.60;;;16.20;99.90;;;;;;5050444;28;20427;-65
2023/08/09 02:15:24;;;;;;;2.87;1.40;;;16.30;99.90;;;;;;5068284;28;20428;-65
2023/08/09 02:17:50;;;;;;;2.03;1.33;;;16.30;99.90;;;;;;5049972;28;20509;-65
2023/08/09 02:20:16;;;;;;;3.60;1.73;;;16.30;99.90;;;;;;5068245;28;20458;-65
2023/08/09 02:22:43;;;;;;;1.87;1.40;;;16.40;99.90;;;;;;5068158;28;20343;-65
2023/08/09 02:25:13;;;;;;;2.10;1.90;;;16.40;99.90;;;;;;5068199;28;20444;-65
2023/08/09 02:27:39;;;;;;;4.23;1.70;;;16.40;99.90;;;;;;5068158;28;20831;-64
2023/08/09 02:30:06;;;;;;;3.10;2.13;;;16.40;99.90;;;;;;5068079;28;20487;-66
2023/08/09 02:32:36;;;;;;;6.07;1.83;;;16.50;99.90;;;;;;5068053;28;20489;-64
2023/08/09 02:35:03;;;;;;;3.77;1.70;;;16.40;99.90;;;;;;5068063;28;20411;-64
2023/08/09 02:37:29;;;;;;;6.50;1.83;;;16.10;99.90;;;;;;5068030;28;20489;-64
2023/08/09 02:39:56;;;;;;;2.40;1.33;;;16.10;99.90;;;;;;5068005;28;20418;-65
2023/08/09 02:42:22;;;;;;;5.33;1.63;;;16.10;99.90;;;;;;5068056;28;21000;-66
2023/08/09 02:44:47;;;;;;;2.83;1.73;;;16.00;99.90;;;;;;5068150;28;20430;-65
2023/08/09 02:47:13;;;;;;;8.57;1.70;;;16.00;99.90;;;;;;5068032;28;20184;-66
2023/08/09 02:49:39;;;;;;;2.60;1.63;;;16.00;99.90;;;;;;5067837;28;20227;-66
2023/08/09 02:52:05;;;;;;;4.00;1.93;;;15.90;99.90;;;;;;5067835;28;20197;-65
2023/08/09 02:54:31;;;;;;;3.70;1.53;;;16.00;99.90;;;;;;5067881;28;20978;-65
2023/08/09 02:56:56;;;;;;;2.30;1.37;;;16.00;99.90;;;;;;5071346;28;20787;-65
2023/08/09 02:59:22;;;;;;;2.20;1.87;;;16.00;99.90;;;;;;5071661;28;20181;-66
2023/08/09 03:01:48;;;;;;;1.90;1.50;;;16.00;99.90;;;;;;5071537;28;20221;-66
2023/08/09 03:04:13;;;;;;;4.10;1.80;;;16.10;99.90;;;;;;5071424;28;20192;-66
2023/08/09 03:06:39;;;;;;;2.83;1.93;;;16.10;99.90;;;;;;5071320;28;20779;-65
2023/08/09 03:09:06;;;;;;;2.80;1.63;;;16.10;99.90;;;;;;5071380;28;20187;-65
2023/08/09 03:11:31;;;;;;;2.97;1.57;;;16.10;99.90;;;;;;5071239;28;20712;-65
2023/08/09 03:13:57;;;;;;;2.40;1.60;;;16.10;99.90;;;;;;5071285;28;20508;-65
2023/08/09 03:16:22;;;;;;;1.70;1.30;;;16.10;99.90;;;;;;5071451;28;20703;-66
2023/08/09 03:18:49;;;;;;;2.50;1.57;;;16.00;99.90;;;;;;5071260;28;20265;-66
2023/08/09 03:21:14;;;;;;;6.23;1.97;;;16.00;99.90;;;;;;5071107;28;20248;-65
2023/08/09 03:23:40;;;;;;;4.17;1.70;;;16.00;99.90;;;;;;5071097;28;20470;-66
2023/08/09 03:26:06;;;;;;;4.60;1.77;;;15.90;99.90;;;;;;5071161;28;20208;-66
2023/08/09 03:28:32;;;;;;;1.93;1.37;;;16.00;99.90;;;;;;5071014;28;20319;-65
2023/08/09 03:30:58;;;;;;;4.50;1.60;;;16.00;99.90;;;;;;5052994;28;20232;-65
2023/08/09 03:33:24;;;;;;;4.23;1.43;;;16.10;99.90;;;;;;5070972;28;20424;-65
2023/08/09 03:35:50;;;;;;;2.70;1.53;;;16.10;99.90;;;;;;5071018;28;20189;-66
2023/08/09 03:38:16;;;;;;;2.23;1.30;;;16.10;99.90;;;;;;5070581;28;20804;-65
2023/08/09 03:40:41;;;;;;;2.60;1.67;;;16.10;99.90;;;;;;5070837;28;20433;-65
2023/08/09 03:43:07;;;;;;;3.20;1.63;;;16.10;99.90;;;;;;5052830;28;20237;-65
2023/08/09 03:45:33;;;;;;;2.03;1.60;;;16.20;99.90;;;;;;5071030;28;20193;-65
2023/08/09 03:47:59;;;;;;;3.90;1.60;;;16.20;99.90;;;;;;5070939;28;20193;-65
2023/08/09 03:50:25;;;;;;;2.60;1.13;;;16.20;99.90;;;;;;5070863;28;20258;-65
2023/08/09 03:52:51;;;;;;;8.17;1.83;;;16.30;99.90;;;;;;5070486;28;20529;-66
2023/08/09 03:55:17;;;;;;;4.60;1.30;;;16.30;99.90;;;;;;5070555;28;20512;-66
2023/08/09 03:57:43;;;;;;;2.10;1.27;;;16.40;99.90;;;;;;5070613;28;20211;-65
2023/08/09 04:00:13;;;;;;;1.83;1.57;;;16.40;99.90;;;;;;5070540;28;20193;-66
2023/08/09 04:02:39;;;;;;;2.43;1.53;;;16.40;99.90;;;;;;5070456;28;20436;-65
2023/08/09 04:05:05;;;;;;;1.73;1.40;;;16.40;99.90;;;;;;5070438;28;21277;-66
2023/08/09 04:07:31;;;;;;;3.70;1.23;;;16.40;99.90;;;;;;5069606;28;20202;-66
2023/08/09 04:09:56;;;;;;;6.00;1.93;;;16.50;99.90;;;;;;5070274;28;20229;-66
2023/08/09 04:12:22;;;;;;;4.10;2.40;;;16.50;99.90;;;;;;5070155;28;20447;-66
2023/08/09 04:14:48;;;;;;;2.90;1.40;;;16.40;99.90;;;;;;5070420;28;20542;-66
2023/08/09 04:17:13;;;;;;;2.93;1.40;;;16.50;99.90;;;;;;5070218;28;20189;-66
2023/08/09 04:19:39;;;;;;;2.07;1.53;;;16.50;99.90;;;;;;5069962;28;20186;-66
2023/08/09 04:22:04;;;;;;;2.73;1.57;;;16.60;99.90;;;;;;5069884;28;20273;-65
2023/08/09 04:24:30;;;;;;;2.63;1.20;;;16.60;99.90;;;;;;5070005;28;20244;-65
2023/08/09 04:26:55;;;;;;;2.90;1.70;;;16.60;99.90;;;;;;5070114;28;20195;-65
2023/08/09 04:29:21;;;;;;;5.10;2.07;;;16.50;99.90;;;;;;5069794;28;20672;-65
2023/08/09 04:31:48;;;;;;;10.73;1.60;;;16.50;99.90;;;;;;5051905;28;20204;-66
2023/08/09 04:34:13;;;;;;;2.60;2.10;;;16.50;99.90;;;;;;5069945;28;20168;-66
2023/08/09 04:36:39;;;;;;;2.37;1.30;;;16.50;99.90;;;;;;5069806;28;20897;-66
2023/08/09 04:39:08;;;;;;;2.63;1.57;;;16.50;99.90;;;;;;5069692;28;20206;-66
2023/08/09 04:41:37;;;;;;;3.13;1.53;;;16.50;99.90;;;;;;5069790;28;20343;-65
2023/08/09 04:44:03;;;;;;;3.37;1.60;;;16.40;99.90;;;;;;5069627;28;20432;-66
2023/08/09 04:46:29;;;;;;;2.23;1.90;;;16.40;99.90;;;;;;5069556;28;20439;-66
2023/08/09 04:48:54;;;;;;;1.90;1.40;;;16.40;99.90;;;;;;5069791;28;20197;-65
2023/08/09 04:51:20;;;;;;;2.43;1.50;;;16.40;99.90;;;;;;5069621;28;20228;-65
2023/08/09 04:53:45;;;;;;;2.13;1.63;;;16.50;99.90;;;;;;5069697;28;20896;-66
2023/08/09 04:56:11;;;;;;;4.27;1.10;;;16.50;99.90;;;;;;5069380;28;20194;-66
2023/08/09 04:58:37;;;;;;;4.50;1.70;;;16.50;99.90;;;;;;5069560;28;20193;-66
2023/08/09 05:01:03;;;;;;;5.23;1.70;;;16.60;99.90;;;;;;5052107;28;20292;-66
2023/08/09 05:03:29;;;;;;;3.40;1.30;;;16.60;99.90;;;;;;5069958;28;20531;-66
2023/08/09 05:05:54;;;;;;;6.30;1.23;;;16.60;99.90;;;;;;5070084;28;20212;-65
2023/08/09 05:08:20;;;;;;;4.80;1.70;;;16.60;99.90;;;;;;5070021;28;20189;-65
2023/08/09 05:10:46;;;;;;;5.07;1.60;;;16.60;99.90;;;;;;5069896;28;20292;-66
2023/08/09 05:13:11;;;;;;;2.53;1.27;;;16.60;99.90;;;;;;5069993;28;20264;-65
2023/08/09 05:15:37;;;;;;;3.60;1.63;;;16.60;99.90;;;;;;5069913;28;20586;-65
2023/08/09 05:18:03;;;;;;;4.23;1.53;;;16.50;99.90;;;;;;5069858;28;20556;-65
2023/08/09 05:20:29;;;;;;;3.73;1.40;;;16.50;99.90;;;;;;5069588;28;20211;-66
2023/08/09 05:22:55;;;;;;;2.27;1.60;;;16.40;99.90;;;;;;5069868;28;20443;-65
2023/08/09 05:25:20;;;;;;;2.20;1.60;;;16.40;99.90;;;;;;5069806;28;20316;-65
2023/08/09 05:27:47;;;;;;;7.43;1.50;;;16.40;99.90;;;;;;5069983;28;20195;-65
2023/08/09 05:30:14;;;;;;;5.73;1.33;;;16.30;99.90;;;;;;5069629;28;20220;-65
2023/08/09 05:32:40;;;;;;;2.27;1.53;;;16.40;99.90;;;;;;5069627;28;20487;-66
2023/08/09 05:35:06;;;;;;;2.43;1.47;;;16.30;99.90;;;;;;5069543;28;20414;-66
2023/08/09 05:37:32;;;;;;;2.70;1.43;;;16.30;99.90;;;;;;5069554;28;20185;-65
2023/08/09 05:39:57;;;;;;;2.93;1.83;;;16.30;99.90;;;;;;5051715;28;20199;-64
2023/08/09 05:42:23;;;;;;;2.47;1.80;;;16.30;99.90;;;;;;5069499;28;20231;-66
2023/08/09 05:44:49;;;;;;;1.70;1.40;;;16.30;99.90;;;;;;5069549;28;20261;-65
2023/08/09 05:47:14;;;;;;;2.17;1.97;;;16.30;99.90;;;;;;5069793;28;20184;-65
2023/08/09 05:49:40;;;;;;;3.87;1.20;;;16.20;99.90;;;;;;5069753;28;20550;-64
2023/08/09 05:52:06;;;;;;;2.40;1.40;;;16.20;99.90;;;;;;5069976;28;20205;-64
2023/08/09 05:54:31;;;;;;;2.80;1.70;;;16.30;99.90;;;;;;5070058;28;20271;-64
2023/08/09 05:56:57;;;;;;;4.60;1.50;;;16.40;99.90;;;;;;5070118;28;20247;-65
2023/08/09 05:59:22;;;;;;;2.47;1.77;;;16.50;99.90;;;;;;5070259;28;20182;-66
2023/08/09 06:01:49;;;;;;;1.33;1.23;;;16.50;99.90;;;;;;5070076;28;20611;-65
2023/08/09 06:04:15;;;;;;;1.90;1.43;;;16.60;99.90;;;;;;5070029;28;20190;-66
2023/08/09 06:06:41;;;;;;;4.60;1.60;;;16.70;99.90;;;;;;5069638;28;20423;-65
2023/08/09 06:09:09;;;;;;;3.43;1.67;;;16.80;99.90;;;;;;5069608;28;20427;-64
2023/08/09 06:11:34;;;;;;;2.53;1.53;;;16.70;99.90;;;;;;5069348;28;20723;-65
2023/08/09 06:14:00;;;;;;;1.40;1.30;;;16.80;99.90;;;;;;5069231;28;20422;-65
2023/08/09 06:16:26;;;;;;;5.27;1.77;;;16.90;99.90;;;;;;5069203;28;20201;-65
2023/08/09 06:18:51;;;;;;;2.30;1.27;;;16.90;99.90;;;;;;5069214;28;20187;-65
2023/08/09 06:21:17;;;;;;;1.90;1.30;;;17.00;99.90;;;;;;5051105;28;20210;-65
2023/08/09 06:23:43;;;;;;;5.53;1.70;;;17.00;99.90;;;;;;5068999;28;20189;-65
2023/08/09 06:26:09;;;;;;;2.43;1.57;;;17.10;99.90;;;;;;5068809;28;20513;-65
2023/08/09 06:28:35;;;;;;;4.90;1.70;;;17.20;99.90;;;;;;5068839;28;20553;-65
2023/08/09 06:31:01;;;;;;;3.83;1.73;;;17.30;99.90;;;;;;5070576;28;20221;-65
2023/08/09 06:33:26;;;;;;;2.13;1.50;;;17.30;99.90;;;;;;5072251;28;20962;-65
2023/08/09 06:35:52;;;;;;;1.90;1.40;;;17.40;99.90;;;;;;5072257;28;20228;-65
2023/08/09 06:38:17;;;;;;;2.70;1.43;;;17.50;99.90;;;;;;5054144;28;20182;-65
2023/08/09 06:40:43;;;;;;;3.10;1.40;;;17.50;99.90;;;;;;5072220;28;20190;-65
2023/08/09 06:43:09;;;;;;;5.93;1.50;;;17.60;99.90;;;;;;5072430;28;20238;-65
2023/08/09 06:45:35;;;;;;;4.27;1.30;;;17.70;99.90;;;;;;5072081;28;20436;-65
2023/08/09 06:48:00;;;;;;;2.63;1.50;;;17.60;99.90;;;;;;5071789;28;20195;-66
2023/08/09 06:50:27;;;;;;;5.60;1.47;;;17.70;99.90;;;;;;5071813;28;20220;-66
2023/08/09 06:52:53;;;;;;;2.70;1.67;;;17.70;99.90;;;;;;5071718;28;20205;-65
2023/08/09 06:55:18;;;;;;;3.30;1.60;;;17.70;99.90;;;;;;5071803;28;20423;-66
2023/08/09 06:57:44;;;;;;;3.23;1.33;;;17.70;99.90;;;;;;5071860;28;20419;-66
2023/08/09 07:00:16;;;;;;;2.63;1.60;;;17.80;99.90;;;;;;5071861;28;20270;-66
2023/08/09 07:02:45;;;;;;;2.67;1.53;;;17.80;99.90;;;;;;5071842;28;20209;-66
2023/08/09 07:05:15;;;;;;;2.83;1.70;;;17.80;99.90;;;;;;5071625;28;20942;-66
2023/08/09 07:07:44;;;;;;;1.70;1.17;;;17.80;99.90;;;;;;5071996;28;20712;-65
2023/08/09 07:10:11;;;;;;;2.70;1.40;;;17.90;99.90;;;;;;5072287;28;20488;-66
2023/08/09 07:12:36;;;;;;;4.77;1.27;;;17.90;99.90;;;;;;5072297;28;20460;-66
2023/08/09 07:15:07;;;;;;;1.93;1.50;;;17.90;99.90;;;;;;5072341;28;20919;-65
2023/08/09 07:17:32;;;;;;;2.30;1.47;;;17.90;99.90;;;;;;5072205;28;20182;-66
2023/08/09 07:19:58;;;;;;;2.40;1.80;;;17.90;99.90;;;;;;5072224;28;20520;-66
2023/08/09 07:22:24;;;;;;;5.20;1.20;;;18.00;99.90;;;;;;5071934;28;20243;-65
2023/08/09 07:24:49;;;;;;;1.50;1.30;;;18.10;99.90;;;;;;5072272;28;20597;-65
2023/08/09 07:27:15;;;;;;;1.67;1.00;;;18.10;99.90;;;;;;5071929;28;20193;-65
2023/08/09 07:29:40;;;;;;;4.20;1.40;;;18.20;99.90;;;;;;5071672;28;20258;-65
2023/08/09 07:32:06;;;;;;;1.30;1.07;;;18.20;99.90;;;;;;5071616;28;20214;-65
2023/08/09 07:34:32;;;;;;;1.77;1.20;;;18.20;99.90;;;;;;5071730;28;20652;-65
2023/08/09 07:36:58;;;;;;;2.07;1.30;;;18.20;99.90;;;;;;5071608;28;20517;-65
2023/08/09 07:39:25;;;;;;;3.33;1.20;;;18.30;99.90;;;;;;5071323;28;20186;-65
2023/08/09 07:41:51;;;;;;;1.40;1.30;;;18.30;99.90;;;;;;5070023;28;20697;-65
2023/08/09 07:44:16;;;;;;;2.60;1.60;;;18.30;99.90;;;;;;5070985;28;20447;-65
2023/08/09 07:46:42;;;;;;;2.20;1.30;;;18.30;99.90;;;;;;5071147;28;20424;-65
2023/08/09 07:49:08;;;;;;;1.93;1.00;;;18.20;99.90;;;;;;5070787;28;20211;-65
2023/08/09 07:51:33;;;;;;;3.00;2.13;;;18.30;99.90;;;;;;5070580;28;20312;-65
2023/08/09 07:53:59;;;;;;;2.30;1.50;;;18.20;99.90;;;;;;5071026;28;20310;-66
2023/08/09 07:56:25;;;;;;;4.43;1.27;;;18.10;99.90;;;;;;5070812;28;20467;-65
2023/08/09 07:58:51;;;;;;;2.60;1.70;;;18.10;99.90;;;;;;5070833;28;20185;-65
2023/08/09 08:01:17;;;;;;;4.47;1.70;;;18.10;99.90;;;;;;5070826;28;20202;-65
2023/08/09 08:03:42;;;;;;;6.87;1.97;;;18.10;99.90;;;;;;5070743;28;20433;-65
2023/08/09 08:06:08;;;;;;;1.83;1.40;;;18.00;99.90;;;;;;5070680;28;20188;-65
2023/08/09 08:08:34;;;;;;;3.70;1.17;;;18.00;99.90;;;;;;5070706;28;20190;-65
2023/08/09 08:11:00;;;;;;;8.00;1.60;;;18.10;99.90;;;;;;5070481;28;20255;-65
2023/08/09 08:13:25;;;;;;;2.07;1.60;;;18.10;99.90;;;;;;5070637;28;20537;-65
2023/08/09 08:15:52;;;;;;;4.03;1.40;;;18.10;99.90;;;;;;5070651;28;20663;-65
2023/08/09 08:18:18;;;;;;;6.23;1.33;;;18.10;99.90;;;;;;5070523;28;20175;-66
2023/08/09 08:20:43;;;;;;;4.20;1.50;;;18.10;99.90;;;;;;5070502;28;20436;-65
2023/08/09 08:23:10;;;;;;;4.50;1.37;;;18.10;99.90;;;;;;5070453;28;20432;-65
2023/08/09 08:25:35;;;;;;;9.20;1.80;;;18.10;99.90;;;;;;5070486;28;20196;-65
2023/08/09 08:28:01;;;;;;;4.80;1.77;;;18.20;99.90;;;;;;5070462;28;20424;-66
2023/08/09 08:30:27;;;;;;;2.83;1.60;;;18.30;99.90;;;;;;5070455;28;20694;-66
2023/08/09 08:32:52;;;;;;;3.63;1.77;;;18.30;99.90;;;;;;5070259;28;20603;-65
2023/08/09 08:35:21;;;;;;;2.30;1.63;;;18.30;99.90;;;;;;5070396;28;20529;-66
2023/08/09 08:37:53;;;;;;;4.73;2.03;;;18.40;99.90;;;;;;5070345;28;20196;-65
2023/08/09 08:40:20;;;;;;;2.20;1.53;;;18.50;99.90;;;;;;5070221;28;20420;-64
2023/08/09 08:42:47;;;;;;;4.27;2.10;;;18.60;99.90;;;;;;5070070;28;20572;-66
2023/08/09 08:45:15;;;;;;;5.07;1.57;;;18.70;99.90;;;;;;5069862;28;20424;-65
2023/08/09 08:47:42;;;;;;;2.60;1.27;;;18.90;99.90;;;;;;5070307;28;20456;-64
2023/08/09 08:50:09;;;;;;;3.73;1.17;;;19.10;99.90;;;;;;5069453;28;20555;-66
2023/08/09 08:52:42;;;;;;;4.00;1.73;;;19.30;99.90;;;;;;5069198;28;20447;-65
2023/08/09 08:55:09;;;;;;;2.80;1.43;;;19.30;99.90;;;;;;5051094;28;20811;-65
2023/08/09 08:57:37;;;;;;;3.87;1.63;;;19.40;99.90;;;;;;5069662;28;20425;-66
2023/08/09 09:00:08;;;;;;;2.50;1.37;;;19.50;99.90;;;;;;5069376;28;20426;-66
2023/08/09 09:02:38;;;;;;;2.13;1.50;;;19.90;99.90;;;;;;5069344;28;20456;-66
2023/08/09 09:05:06;;;;;;;3.13;1.37;;;20.20;99.90;;;;;;5069392;28;20807;-65
2023/08/09 09:07:33;;;;;;;2.10;1.90;;;20.30;99.90;;;;;;5069313;28;20413;-65
2023/08/09 09:10:06;;;;;;;5.10;1.80;;;20.40;99.90;;;;;;5069158;28;20469;-66
2023/08/09 09:12:36;;;;;;;2.00;1.63;;;20.30;99.90;;;;;;5069048;28;20429;-66
2023/08/09 09:15:04;;;;;;;2.60;1.63;;;20.30;99.90;;;;;;5069118;28;21251;-66
2023/08/09 09:17:30;;;;;;;2.13;1.50;;;20.30;99.90;;;;;;5069113;28;20754;-65
2023/08/09 09:19:56;;;;;;;2.70;1.30;;;20.20;99.90;;;;;;5069303;28;20456;-65
2023/08/09 09:22:30;;;;;;;2.70;1.63;;;20.10;99.90;;;;;;5069003;28;20477;-66
2023/08/09 09:25:01;;;;;;;9.30;2.27;;;20.00;99.90;;;;;;5069058;28;20245;-66
2023/08/09 09:27:31;;;;;;;2.23;1.73;;;20.10;99.90;;;;;;5068831;28;20972;-66
2023/08/09 09:30:14;;;;;;;2.20;1.40;;;20.00;99.90;;;;;;5068797;28;20881;-66
2023/08/09 09:33:02;;;;;;;3.27;1.63;;;20.10;99.90;;;;;;5068784;28;20441;-66
2023/08/09 09:35:32;;;;;;;3.23;1.47;;;20.10;99.90;;;;;;5068899;28;20950;-66
2023/08/09 09:37:59;;;;;;;3.53;1.90;;;20.00;99.90;;;;;;5069107;28;20421;-65
2023/08/09 09:40:32;;;;;;;5.90;1.50;;;20.10;99.90;;;;;;5068939;28;20420;-66
2023/08/09 09:42:59;;;;;;;3.10;1.60;;;20.00;99.90;;;;;;5068725;28;20428;-66
2023/08/09 09:45:27;;;;;;;4.93;1.63;;;20.00;99.90;;;;;;5068905;28;20428;-66
2023/08/09 09:47:54;;;;;;;5.17;1.73;;;20.00;99.90;;;;;;5068817;28;20431;-66
2023/08/09 09:50:22;;;;;;;4.10;1.50;;;20.00;99.90;;;;;;5068531;28;20838;-65
2023/08/09 09:52:49;;;;;;;2.13;1.60;;;20.10;99.90;;;;;;5068601;28;20502;-65
2023/08/09 09:55:20;;;;;;;4.80;1.67;;;20.10;99.90;;;;;;5068699;28;20983;-65
2023/08/09 09:57:49;;;;;;;2.50;1.50;;;20.00;99.90;;;;;;5068730;28;20421;-65
2023/08/09 10:00:15;;;;;;;4.00;2.60;;;20.00;99.90;;;;;;5068692;28;20425;-66
2023/08/09 10:02:48;;;;;;;3.03;1.77;;;19.90;99.90;;;;;;5068380;28;20447;-66
2023/08/09 10:05:18;;;;;;;3.73;1.53;;;19.90;99.90;;;;;;5067777;28;20432;-66
2023/08/09 10:07:45;;;;;;;6.83;1.33;;;19.90;99.90;;;;;;5068558;28;20522;-66
2023/08/09 10:10:12;;;;;;;5.13;1.63;;;19.80;99.90;;;;;;5068526;28;20472;-65
2023/08/09 10:12:42;;;;;;;3.73;1.70;;;19.90;99.90;;;;;;5068279;28;20502;-64
2023/08/09 10:15:12;;;;;;;3.30;2.03;;;19.90;99.90;;;;;;5068710;28;20431;-66
2023/08/09 10:17:38;;;;;;;3.50;1.87;;;19.90;99.90;;;;;;5068791;28;20779;-66
2023/08/09 10:20:07;;;;;;;2.10;1.73;;;19.90;99.90;;;;;;5068954;28;20424;-66
2023/08/09 10:22:32;;;;;;;2.20;1.57;;;19.90;99.90;;;;;;5069628;28;20441;-65
2023/08/09 10:24:58;;;;;;;4.10;1.80;;;20.00;99.90;;;;;;5052437;28;20827;-65
2023/08/09 10:27:50;;;;;;;8.20;1.67;;;20.00;99.90;;;;;;5069165;28;20193;-64
2023/08/09 10:30:19;;;;;;;4.03;1.80;;;20.10;99.90;;;;;;5068972;28;20226;-65
2023/08/09 10:32:50;;;;;;;2.73;1.60;;;20.20;99.90;;;;;;5069486;28;20472;-65
2023/08/09 10:35:50;;;;;;;8.23;1.80;;;20.30;99.90;;;;;;5069210;28;20923;-65
2023/08/09 10:38:20;;;;;;;3.70;1.50;;;20.30;99.90;;;;;;5069653;28;20528;-65
2023/08/09 10:40:53;;;;;;;6.83;1.77;;;20.30;99.90;;;;;;5069188;28;20414;-65
2023/08/09 10:43:21;;;;;;;4.77;2.00;;;20.30;99.90;;;;;;5069039;28;20436;-65
2023/08/09 10:45:51;;;;;;;3.10;1.60;;;20.20;99.90;;;;;;5069026;28;20912;-65
2023/08/09 10:48:23;;;;;;;3.83;2.10;;;20.20;99.90;;;;;;5069170;28;20457;-65
2023/08/09 10:51:15;;;;;;;3.53;1.50;;;20.30;99.90;;;;;;5068515;28;20511;-65
2023/08/09 10:54:00;;;;;;;2.40;1.37;;;20.40;99.90;;;;;;5069129;28;20910;-65
2023/08/09 10:56:33;;;;;;;2.53;1.53;;;20.30;99.90;;;;;;5069155;28;20412;-65
2023/08/09 10:59:15;;;;;;;3.83;1.33;;;20.30;99.90;;;;;;5068852;28;20422;-64
2023/08/09 11:01:42;;;;;;;3.07;1.73;;;20.40;99.90;;;;;;5068712;28;20449;-66
2023/08/09 11:04:10;;;;;;;6.03;1.87;;;20.40;99.90;;;;;;5068636;28;20915;-65
2023/08/09 11:06:44;;;;;;;2.37;1.40;;;20.50;99.90;;;;;;5068585;28;20425;-66
2023/08/09 11:09:15;;;;;;;3.37;1.77;;;20.50;99.90;;;;;;5068497;28;21009;-65
2023/08/09 11:11:43;;;;;;;3.30;2.03;;;20.50;99.90;;;;;;5068168;28;20476;-66
2023/08/09 11:14:10;;;;;;;4.33;2.00;;;20.40;99.90;;;;;;5068325;28;20445;-65
2023/08/09 11:16:37;;;;;;;4.80;2.40;;;20.50;99.90;;;;;;5069489;28;20460;-65
2023/08/09 11:19:07;;;;;;;4.60;3.03;;;20.50;99.90;;;;;;5071745;28;20424;-66
2023/08/09 11:21:52;;;;;;;3.40;2.30;;;20.70;99.90;;;;;;5071467;28;20443;-65
2023/08/09 11:24:20;;;;;;;4.03;1.80;;;20.90;99.90;;;;;;5071347;28;20865;-66
2023/08/09 11:26:58;;;;;;;1.83;1.57;;;21.10;99.90;;;;;;5071411;28;20924;-65
2023/08/09 11:29:26;;;;;;;1.83;1.43;;;21.40;99.90;;;;;;5071274;28;20417;-67
2023/08/09 11:31:53;;;;;;;2.60;1.57;;;21.70;99.90;;;;;;5070996;28;20486;-65
2023/08/09 11:34:21;;;;;;;1.93;1.73;;;21.80;99.90;;;;;;5071552;28;21251;-65
2023/08/09 11:36:48;;;;;;;3.23;1.50;;;21.90;99.90;;;;;;5071277;28;20782;-65
2023/08/09 11:39:15;;;;;;;2.03;1.33;;;21.90;99.90;;;;;;5071075;28;20463;-65
2023/08/09 11:41:54;;;;;;;2.00;1.57;;;22.10;99.90;;;;;;5070870;28;20502;-65
2023/08/09 11:44:29;;;;;;;2.37;1.83;;;22.20;99.90;;;;;;5071080;28;20513;-66
2023/08/09 11:46:56;;;;;;;3.50;2.00;;;22.40;99.90;;;;;;5070843;28;20430;-66
2023/08/09 11:49:26;;;;;;;5.03;1.57;;;22.50;99.90;;;;;;5071002;28;20842;-66
2023/08/09 11:51:52;;;;;;;5.97;1.63;;;22.60;99.90;;;;;;5070781;28;20475;-66
2023/08/09 11:54:18;;;;;;;2.40;1.53;;;22.70;99.90;;;;;;5070841;28;20920;-66
2023/08/09 11:56:44;;;;;;;6.10;2.07;;;22.90;99.90;;;;;;5070829;28;20184;-67
2023/08/09 11:59:11;;;;;;;3.30;1.53;;;22.90;99.90;;;;;;5070607;28;20742;-66
2023/08/09 12:01:45;;;;;;;5.30;1.90;;;22.80;99.90;;;;;;5070484;28;20291;-65
2023/08/09 12:04:13;;;;;;;3.13;1.80;;;22.90;99.90;;;;;;5070686;28;20418;-64
2023/08/09 12:06:43;;;;;;;7.10;2.70;;;22.80;99.90;;;;;;5070497;28;20418;-65
2023/08/09 12:09:32;;;;;;;4.73;1.77;;;22.90;99.90;;;;;;5070624;28;20425;-65
2023/08/09 12:12:08;;;;;;;2.20;1.67;;;22.80;99.90;;;;;;5070106;28;20519;-65
2023/08/09 12:14:38;;;;;;;2.90;1.83;;;22.90;99.90;;;;;;5070437;28;20522;-65
2023/08/09 12:17:05;;;;;;;3.03;1.73;;;23.00;99.90;;;;;;5070408;28;20409;-65
2023/08/09 12:19:31;;;;;;;1.90;1.63;;;22.90;99.90;;;;;;5070250;28;20415;-65
2023/08/09 12:21:57;;;;;;;2.53;1.40;;;22.80;99.90;;;;;;5070127;28;20447;-65
2023/08/09 12:24:23;;;;;;;2.33;1.67;;;22.60;99.90;;;;;;5070195;28;20199;-66
2023/08/09 12:26:49;;;;;;;4.60;1.63;;;22.60;99.90;;;;;;5070152;28;20422;-65
2023/08/09 12:29:14;;;;;;;2.63;1.47;;;22.60;99.90;;;;;;5069544;28;20624;-65
2023/08/09 12:31:40;;;;;;;4.50;1.70;;;22.70;99.90;;;;;;5051898;28;20229;-65
2023/08/09 12:34:08;;;;;;;1.70;1.40;;;22.60;99.90;;;;;;5070259;28;20704;-65
2023/08/09 12:36:34;;;;;;;2.63;1.53;;;22.40;99.90;;;;;;5070086;28;20187;-65
2023/08/09 12:38:59;;;;;;;1.93;1.40;;;22.20;99.90;;;;;;5070083;28;20424;-65
2023/08/09 12:41:25;;;;;;;3.73;1.57;;;22.10;99.90;;;;;;5069871;28;20443;-66
2023/08/09 12:43:52;;;;;;;4.17;1.47;;;22.00;99.90;;;;;;5069960;28;20207;-65
2023/08/09 12:46:18;;;;;;;5.83;1.57;;;21.80;99.90;;;;;;5069914;28;20418;-67
2023/08/09 12:48:44;;;;;;;3.07;1.87;;;21.70;99.90;;;;;;5069582;28;20210;-66